sensor_id;sensor_type;location;lat;lon;timestamp;P1;durP1;ratioP1;P2;durP2;ratioP2
7539;SDS011;3811;49.006;12.076;2023-04-29T00:01:01;8.30;;;6.70;;
7539;SDS011;3811;49.006;12.076;2023-04-29T00:03:29;9.93;;;8.93;;
7539;SDS011;3811;49.006;12.076;2023-04-29T00:05:57;10.83;;;8.90;;
7539;SDS011;3811;49.006;12.076;2023-04-29T00:08:24;9.70;;;8.57;;
7539;SDS011;3811;49.006;12.076;2023-04-29T00:10:51;9.30;;;8.30;;
7539;SDS011;3811;49.006;12.076;2023-04-29T00:13:19;8.57;;;7.40;;
7539;SDS011;3811;49.006;12.076;2023-04-29T00:15:48;11.43;;;7.97;;
7539;SDS011;3811;49.006;12.076;2023-04-29T00:18:15;8.80;;;7.90;;
7539;SDS011;3811;49.006;12.076;2023-04-29T00:20:43;9.67;;;8.67;;
7539;SDS011;3811;49.006;12.076;2023-04-29T00:23:10;10.17;;;8.87;;
7539;SDS011;3811;49.006;12.076;2023-04-29T00:25:37;11.40;;;9.20;;
7539;SDS011;3811;49.006;12.076;2023-04-29T00:28:05;9.17;;;7.67;;
7539;SDS011;3811;49.006;12.076;2023-04-29T00:30:32;10.43;;;7.97;;
7539;SDS011;3811;49.006;12.076;2023-04-29T00:33:01;12.33;;;9.37;;
7539;SDS011;3811;49.006;12.076;2023-04-29T00:35:28;10.80;;;9.60;;
7539;SDS011;3811;49.006;12.076;2023-04-29T00:37:55;11.27;;;9.33;;
7539;SDS011;3811;49.006;12.076;2023-04-29T00:40:22;12.13;;;10.13;;
7539;SDS011;3811;49.006;12.076;2023-04-29T00:42:49;13.07;;;9.23;;
7539;SDS011;3811;49.006;12.076;2023-04-29T00:45:17;12.63;;;9.87;;
7539;SDS011;3811;49.006;12.076;2023-04-29T00:47:44;12.77;;;10.53;;
7539;SDS011;3811;49.006;12.076;2023-04-29T00:50:12;12.80;;;10.53;;
7539;SDS011;3811;49.006;12.076;2023-04-29T00:52:40;13.17;;;10.53;;
7539;SDS011;3811;49.006;12.076;2023-04-29T00:55:07;13.80;;;10.53;;
7539;SDS011;3811;49.006;12.076;2023-04-29T00:57:37;13.10;;;10.80;;
7539;SDS011;3811;49.006;12.076;2023-04-29T01:00:05;14.60;;;12.17;;
7539;SDS011;3811;49.006;12.076;2023-04-29T01:02:34;16.57;;;11.03;;
7539;SDS011;3811;49.006;12.076;2023-04-29T01:05:01;13.17;;;11.37;;
7539;SDS011;3811;49.006;12.076;2023-04-29T01:07:30;14.70;;;12.77;;
7539;SDS011;3811;49.006;12.076;2023-04-29T01:10:02;13.67;;;11.87;;
7539;SDS011;3811;49.006;12.076;2023-04-29T01:12:32;14.30;;;12.20;;
7539;SDS011;3811;49.006;12.076;2023-04-29T01:15:08;13.10;;;11.70;;
7539;SDS011;3811;49.006;12.076;2023-04-29T01:17:43;15.93;;;13.17;;
7539;SDS011;3811;49.006;12.076;2023-04-29T01:20:17;17.23;;;13.13;;
7539;SDS011;3811;49.006;12.076;2023-04-29T01:22:48;15.47;;;11.90;;
7539;SDS011;3811;49.006;12.076;2023-04-29T01:25:17;18.37;;;13.43;;
7539;SDS011;3811;49.006;12.076;2023-04-29T01:28:13;15.37;;;12.87;;
7539;SDS011;3811;49.006;12.076;2023-04-29T01:30:44;14.37;;;12.43;;
7539;SDS011;3811;49.006;12.076;2023-04-29T01:33:20;14.43;;;12.53;;
7539;SDS011;3811;49.006;12.076;2023-04-29T01:35:51;16.97;;;13.10;;
7539;SDS011;3811;49.006;12.076;2023-04-29T01:38:30;16.10;;;11.87;;
7539;SDS011;3811;49.006;12.076;2023-04-29T01:41:07;14.53;;;12.90;;
7539;SDS011;3811;49.006;12.076;2023-04-29T01:43:39;15.80;;;12.93;;
7539;SDS011;3811;49.006;12.076;2023-04-29T01:46:17;15.33;;;13.10;;
7539;SDS011;3811;49.006;12.076;2023-04-29T01:48:45;16.23;;;12.13;;
7539;SDS011;3811;49.006;12.076;2023-04-29T01:51:12;14.70;;;12.37;;
7539;SDS011;3811;49.006;12.076;2023-04-29T01:53:40;14.33;;;11.93;;
7539;SDS011;3811;49.006;12.076;2023-04-29T01:56:09;12.70;;;10.70;;
7539;SDS011;3811;49.006;12.076;2023-04-29T01:58:56;17.93;;;11.83;;
7539;SDS011;3811;49.006;12.076;2023-04-29T02:01:52;14.37;;;11.90;;
7539;SDS011;3811;49.006;12.076;2023-04-29T02:04:21;13.67;;;11.17;;
7539;SDS011;3811;49.006;12.076;2023-04-29T02:06:49;12.93;;;11.30;;
7539;SDS011;3811;49.006;12.076;2023-04-29T02:09:17;16.83;;;11.13;;
7539;SDS011;3811;49.006;12.076;2023-04-29T02:11:51;13.90;;;11.93;;
7539;SDS011;3811;49.006;12.076;2023-04-29T02:14:18;13.83;;;11.63;;
7539;SDS011;3811;49.006;12.076;2023-04-29T02:16:46;12.47;;;10.77;;
7539;SDS011;3811;49.006;12.076;2023-04-29T02:19:13;14.00;;;11.00;;
7539;SDS011;3811;49.006;12.076;2023-04-29T02:21:40;11.33;;;10.13;;
7539;SDS011;3811;49.006;12.076;2023-04-29T02:24:08;14.80;;;10.60;;
7539;SDS011;3811;49.006;12.076;2023-04-29T02:26:35;12.77;;;10.50;;
7539;SDS011;3811;49.006;12.076;2023-04-29T02:29:04;11.43;;;9.47;;
7539;SDS011;3811;49.006;12.076;2023-04-29T02:31:31;12.53;;;10.43;;
7539;SDS011;3811;49.006;12.076;2023-04-29T02:33:58;11.33;;;9.43;;
7539;SDS011;3811;49.006;12.076;2023-04-29T02:36:25;13.57;;;9.83;;
7539;SDS011;3811;49.006;12.076;2023-04-29T02:38:53;15.93;;;10.33;;
7539;SDS011;3811;49.006;12.076;2023-04-29T02:41:20;14.97;;;11.30;;
7539;SDS011;3811;49.006;12.076;2023-04-29T02:47:45;12.67;;;10.37;;
7539;SDS011;3811;49.006;12.076;2023-04-29T02:54:00;12.93;;;10.67;;
7539;SDS011;3811;49.006;12.076;2023-04-29T02:56:27;11.97;;;10.47;;
7539;SDS011;3811;49.006;12.076;2023-04-29T02:58:55;13.90;;;10.33;;
7539;SDS011;3811;49.006;12.076;2023-04-29T03:01:22;11.30;;;9.50;;
7539;SDS011;3811;49.006;12.076;2023-04-29T03:03:50;12.53;;;9.77;;
7539;SDS011;3811;49.006;12.076;2023-04-29T03:06:18;12.83;;;9.53;;
7539;SDS011;3811;49.006;12.076;2023-04-29T03:08:46;10.87;;;9.23;;
7539;SDS011;3811;49.006;12.076;2023-04-29T03:11:13;12.17;;;8.97;;
7539;SDS011;3811;49.006;12.076;2023-04-29T03:13:40;9.03;;;7.93;;
7539;SDS011;3811;49.006;12.076;2023-04-29T03:16:07;10.03;;;8.30;;
7539;SDS011;3811;49.006;12.076;2023-04-29T03:18:34;9.53;;;8.00;;
7539;SDS011;3811;49.006;12.076;2023-04-29T03:21:03;9.83;;;8.20;;
7539;SDS011;3811;49.006;12.076;2023-04-29T03:23:30;8.70;;;7.67;;
7539;SDS011;3811;49.006;12.076;2023-04-29T03:25:58;13.13;;;8.57;;
7539;SDS011;3811;49.006;12.076;2023-04-29T03:28:26;11.47;;;8.90;;
7539;SDS011;3811;49.006;12.076;2023-04-29T03:30:53;13.53;;;8.97;;
7539;SDS011;3811;49.006;12.076;2023-04-29T03:33:20;14.20;;;9.77;;
7539;SDS011;3811;49.006;12.076;2023-04-29T03:35:48;12.67;;;9.80;;
7539;SDS011;3811;49.006;12.076;2023-04-29T03:38:37;13.10;;;9.43;;
7539;SDS011;3811;49.006;12.076;2023-04-29T03:41:04;12.80;;;9.87;;
7539;SDS011;3811;49.006;12.076;2023-04-29T03:43:31;13.37;;;9.60;;
7539;SDS011;3811;49.006;12.076;2023-04-29T03:45:59;13.17;;;9.03;;
7539;SDS011;3811;49.006;12.076;2023-04-29T03:48:26;14.27;;;9.23;;
7539;SDS011;3811;49.006;12.076;2023-04-29T03:50:53;13.43;;;9.50;;
7539;SDS011;3811;49.006;12.076;2023-04-29T03:53:21;11.63;;;8.53;;
7539;SDS011;3811;49.006;12.076;2023-04-29T03:55:51;11.17;;;9.23;;
7539;SDS011;3811;49.006;12.076;2023-04-29T03:58:19;13.40;;;10.30;;
7539;SDS011;3811;49.006;12.076;2023-04-29T04:00:47;12.37;;;9.63;;
7539;SDS011;3811;49.006;12.076;2023-04-29T04:03:20;16.27;;;10.80;;
7539;SDS011;3811;49.006;12.076;2023-04-29T04:05:50;13.07;;;9.90;;
7539;SDS011;3811;49.006;12.076;2023-04-29T04:08:17;12.97;;;10.03;;
7539;SDS011;3811;49.006;12.076;2023-04-29T04:10:55;13.27;;;10.10;;
7539;SDS011;3811;49.006;12.076;2023-04-29T04:13:34;13.57;;;9.77;;
7539;SDS011;3811;49.006;12.076;2023-04-29T04:16:02;12.80;;;10.20;;
7539;SDS011;3811;49.006;12.076;2023-04-29T04:18:30;12.37;;;10.07;;
7539;SDS011;3811;49.006;12.076;2023-04-29T04:21:03;12.97;;;10.43;;
7539;SDS011;3811;49.006;12.076;2023-04-29T04:23:30;15.53;;;11.50;;
7539;SDS011;3811;49.006;12.076;2023-04-29T04:26:03;15.03;;;10.70;;
7539;SDS011;3811;49.006;12.076;2023-04-29T04:28:49;18.63;;;10.90;;
7539;SDS011;3811;49.006;12.076;2023-04-29T04:31:24;14.10;;;10.33;;
7539;SDS011;3811;49.006;12.076;2023-04-29T04:33:52;14.87;;;10.73;;
7539;SDS011;3811;49.006;12.076;2023-04-29T04:36:20;15.27;;;10.20;;
7539;SDS011;3811;49.006;12.076;2023-04-29T04:38:48;14.00;;;10.07;;
7539;SDS011;3811;49.006;12.076;2023-04-29T04:41:17;17.37;;;10.73;;
7539;SDS011;3811;49.006;12.076;2023-04-29T04:43:46;12.27;;;10.33;;
7539;SDS011;3811;49.006;12.076;2023-04-29T04:46:20;15.33;;;9.90;;
7539;SDS011;3811;49.006;12.076;2023-04-29T04:48:56;15.90;;;9.77;;
7539;SDS011;3811;49.006;12.076;2023-04-29T04:51:24;14.80;;;10.37;;
7539;SDS011;3811;49.006;12.076;2023-04-29T04:53:53;13.97;;;10.80;;
7539;SDS011;3811;49.006;12.076;2023-04-29T04:56:23;13.57;;;10.43;;
7539;SDS011;3811;49.006;12.076;2023-04-29T04:58:50;13.20;;;10.53;;
7539;SDS011;3811;49.006;12.076;2023-04-29T05:01:18;14.97;;;12.50;;
7539;SDS011;3811;49.006;12.076;2023-04-29T05:03:45;14.53;;;12.33;;
7539;SDS011;3811;49.006;12.076;2023-04-29T05:06:12;18.30;;;11.53;;
7539;SDS011;3811;49.006;12.076;2023-04-29T05:08:43;14.00;;;11.67;;
7539;SDS011;3811;49.006;12.076;2023-04-29T05:11:15;12.00;;;10.63;;
7539;SDS011;3811;49.006;12.076;2023-04-29T05:13:47;13.97;;;11.00;;
7539;SDS011;3811;49.006;12.076;2023-04-29T05:16:15;13.20;;;11.00;;
7539;SDS011;3811;49.006;12.076;2023-04-29T05:18:44;14.33;;;11.00;;
7539;SDS011;3811;49.006;12.076;2023-04-29T05:21:14;15.73;;;13.23;;
7539;SDS011;3811;49.006;12.076;2023-04-29T05:23:41;14.13;;;11.10;;
7539;SDS011;3811;49.006;12.076;2023-04-29T05:26:08;16.73;;;11.87;;
7539;SDS011;3811;49.006;12.076;2023-04-29T05:28:36;16.53;;;12.03;;
7539;SDS011;3811;49.006;12.076;2023-04-29T05:31:05;14.63;;;11.87;;
7539;SDS011;3811;49.006;12.076;2023-04-29T05:33:32;17.07;;;12.43;;
7539;SDS011;3811;49.006;12.076;2023-04-29T05:36:00;14.37;;;11.37;;
7539;SDS011;3811;49.006;12.076;2023-04-29T05:38:27;18.90;;;12.53;;
7539;SDS011;3811;49.006;12.076;2023-04-29T05:41:01;14.97;;;12.27;;
7539;SDS011;3811;49.006;12.076;2023-04-29T05:43:29;14.77;;;10.70;;
7539;SDS011;3811;49.006;12.076;2023-04-29T05:45:56;16.30;;;11.67;;
7539;SDS011;3811;49.006;12.076;2023-04-29T05:48:25;15.43;;;11.50;;
7539;SDS011;3811;49.006;12.076;2023-04-29T05:50:53;15.20;;;11.57;;
7539;SDS011;3811;49.006;12.076;2023-04-29T05:53:21;16.77;;;11.73;;
7539;SDS011;3811;49.006;12.076;2023-04-29T05:55:48;15.97;;;11.50;;
7539;SDS011;3811;49.006;12.076;2023-04-29T05:58:15;13.07;;;10.40;;
7539;SDS011;3811;49.006;12.076;2023-04-29T06:00:43;17.17;;;10.93;;
7539;SDS011;3811;49.006;12.076;2023-04-29T06:03:18;15.17;;;11.43;;
7539;SDS011;3811;49.006;12.076;2023-04-29T06:05:49;12.93;;;10.53;;
7539;SDS011;3811;49.006;12.076;2023-04-29T06:08:19;16.23;;;11.47;;
7539;SDS011;3811;49.006;12.076;2023-04-29T06:10:51;16.97;;;11.53;;
7539;SDS011;3811;49.006;12.076;2023-04-29T06:13:19;14.17;;;11.40;;
7539;SDS011;3811;49.006;12.076;2023-04-29T06:15:47;12.50;;;10.70;;
7539;SDS011;3811;49.006;12.076;2023-04-29T06:18:15;16.00;;;11.50;;
7539;SDS011;3811;49.006;12.076;2023-04-29T06:20:42;14.77;;;10.63;;
7539;SDS011;3811;49.006;12.076;2023-04-29T06:23:11;14.33;;;11.07;;
7539;SDS011;3811;49.006;12.076;2023-04-29T06:25:39;12.97;;;9.67;;
7539;SDS011;3811;49.006;12.076;2023-04-29T06:28:07;12.83;;;10.17;;
7539;SDS011;3811;49.006;12.076;2023-04-29T06:30:35;11.30;;;9.27;;
7539;SDS011;3811;49.006;12.076;2023-04-29T06:33:03;10.73;;;9.47;;
7539;SDS011;3811;49.006;12.076;2023-04-29T06:35:30;10.50;;;8.70;;
7539;SDS011;3811;49.006;12.076;2023-04-29T06:38:22;11.67;;;9.73;;
7539;SDS011;3811;49.006;12.076;2023-04-29T06:41:20;11.80;;;9.33;;
7539;SDS011;3811;49.006;12.076;2023-04-29T06:47:28;12.70;;;9.10;;
7539;SDS011;3811;49.006;12.076;2023-04-29T06:50:24;10.93;;;9.17;;
7539;SDS011;3811;49.006;12.076;2023-04-29T06:52:52;11.83;;;9.40;;
7539;SDS011;3811;49.006;12.076;2023-04-29T06:55:21;10.53;;;8.80;;
7539;SDS011;3811;49.006;12.076;2023-04-29T06:57:48;11.40;;;8.53;;
7539;SDS011;3811;49.006;12.076;2023-04-29T07:00:16;13.83;;;9.30;;
7539;SDS011;3811;49.006;12.076;2023-04-29T07:02:45;9.43;;;7.90;;
7539;SDS011;3811;49.006;12.076;2023-04-29T07:05:12;8.93;;;7.33;;
7539;SDS011;3811;49.006;12.076;2023-04-29T07:07:41;9.00;;;7.90;;
7539;SDS011;3811;49.006;12.076;2023-04-29T07:10:08;8.27;;;7.03;;
7539;SDS011;3811;49.006;12.076;2023-04-29T07:12:37;8.07;;;7.27;;
7539;SDS011;3811;49.006;12.076;2023-04-29T07:15:05;7.67;;;6.23;;
7539;SDS011;3811;49.006;12.076;2023-04-29T07:17:32;7.33;;;6.63;;
7539;SDS011;3811;49.006;12.076;2023-04-29T07:20:00;6.97;;;6.20;;
7539;SDS011;3811;49.006;12.076;2023-04-29T07:22:28;9.90;;;8.90;;
7539;SDS011;3811;49.006;12.076;2023-04-29T07:24:55;5.97;;;5.03;;
7539;SDS011;3811;49.006;12.076;2023-04-29T07:27:23;5.60;;;5.00;;
7539;SDS011;3811;49.006;12.076;2023-04-29T07:29:52;5.80;;;5.27;;
7539;SDS011;3811;49.006;12.076;2023-04-29T07:32:19;5.30;;;4.77;;
7539;SDS011;3811;49.006;12.076;2023-04-29T07:34:47;4.23;;;3.93;;
7539;SDS011;3811;49.006;12.076;2023-04-29T07:37:14;4.40;;;4.00;;
7539;SDS011;3811;49.006;12.076;2023-04-29T07:39:41;4.47;;;4.07;;
7539;SDS011;3811;49.006;12.076;2023-04-29T07:42:09;4.90;;;4.37;;
7539;SDS011;3811;49.006;12.076;2023-04-29T07:44:36;5.33;;;4.83;;
7539;SDS011;3811;49.006;12.076;2023-04-29T07:47:05;4.90;;;4.50;;
7539;SDS011;3811;49.006;12.076;2023-04-29T07:49:33;4.43;;;4.03;;
7539;SDS011;3811;49.006;12.076;2023-04-29T07:52:00;3.10;;;2.90;;
7539;SDS011;3811;49.006;12.076;2023-04-29T07:54:28;2.60;;;2.47;;
7539;SDS011;3811;49.006;12.076;2023-04-29T07:56:56;3.17;;;2.90;;
7539;SDS011;3811;49.006;12.076;2023-04-29T07:59:23;3.23;;;3.03;;
7539;SDS011;3811;49.006;12.076;2023-04-29T08:01:51;2.93;;;2.73;;
7539;SDS011;3811;49.006;12.076;2023-04-29T08:04:19;3.43;;;2.50;;
7539;SDS011;3811;49.006;12.076;2023-04-29T08:06:54;3.57;;;2.77;;
7539;SDS011;3811;49.006;12.076;2023-04-29T08:09:21;4.43;;;2.87;;
7539;SDS011;3811;49.006;12.076;2023-04-29T08:11:48;2.80;;;2.60;;
7539;SDS011;3811;49.006;12.076;2023-04-29T08:14:16;2.70;;;2.50;;
7539;SDS011;3811;49.006;12.076;2023-04-29T08:16:44;2.60;;;2.40;;
7539;SDS011;3811;49.006;12.076;2023-04-29T08:19:11;3.13;;;2.70;;
7539;SDS011;3811;49.006;12.076;2023-04-29T08:21:40;3.07;;;2.77;;
7539;SDS011;3811;49.006;12.076;2023-04-29T08:24:07;3.03;;;2.63;;
7539;SDS011;3811;49.006;12.076;2023-04-29T08:26:35;2.90;;;2.60;;
7539;SDS011;3811;49.006;12.076;2023-04-29T08:29:02;3.70;;;2.80;;
7539;SDS011;3811;49.006;12.076;2023-04-29T08:31:29;2.80;;;2.60;;
7539;SDS011;3811;49.006;12.076;2023-04-29T08:33:56;4.03;;;2.70;;
7539;SDS011;3811;49.006;12.076;2023-04-29T08:36:23;2.80;;;2.60;;
7539;SDS011;3811;49.006;12.076;2023-04-29T08:38:54;2.47;;;2.27;;
7539;SDS011;3811;49.006;12.076;2023-04-29T08:41:21;2.70;;;2.50;;
7539;SDS011;3811;49.006;12.076;2023-04-29T08:43:49;2.40;;;2.30;;
7539;SDS011;3811;49.006;12.076;2023-04-29T08:46:16;2.53;;;2.33;;
7539;SDS011;3811;49.006;12.076;2023-04-29T08:48:44;2.40;;;2.20;;
7539;SDS011;3811;49.006;12.076;2023-04-29T08:51:12;2.97;;;2.77;;
7539;SDS011;3811;49.006;12.076;2023-04-29T08:53:39;2.97;;;2.77;;
7539;SDS011;3811;49.006;12.076;2023-04-29T08:56:14;4.73;;;2.93;;
7539;SDS011;3811;49.006;12.076;2023-04-29T08:58:44;5.73;;;5.23;;
7539;SDS011;3811;49.006;12.076;2023-04-29T09:01:11;3.90;;;3.60;;
7539;SDS011;3811;49.006;12.076;2023-04-29T09:03:40;2.90;;;2.70;;
7539;SDS011;3811;49.006;12.076;2023-04-29T09:06:09;3.17;;;2.90;;
7539;SDS011;3811;49.006;12.076;2023-04-29T09:08:36;3.00;;;2.70;;
7539;SDS011;3811;49.006;12.076;2023-04-29T09:11:04;3.20;;;2.90;;
7539;SDS011;3811;49.006;12.076;2023-04-29T09:13:36;2.50;;;2.30;;
7539;SDS011;3811;49.006;12.076;2023-04-29T09:16:03;3.37;;;3.07;;
7539;SDS011;3811;49.006;12.076;2023-04-29T09:18:40;3.07;;;2.80;;
7539;SDS011;3811;49.006;12.076;2023-04-29T09:21:17;2.60;;;2.43;;
7539;SDS011;3811;49.006;12.076;2023-04-29T09:23:45;2.20;;;2.00;;
7539;SDS011;3811;49.006;12.076;2023-04-29T09:26:14;3.07;;;2.77;;
7539;SDS011;3811;49.006;12.076;2023-04-29T09:28:41;3.20;;;2.80;;
7539;SDS011;3811;49.006;12.076;2023-04-29T09:31:09;3.03;;;2.00;;
7539;SDS011;3811;49.006;12.076;2023-04-29T09:33:50;2.20;;;2.07;;
7539;SDS011;3811;49.006;12.076;2023-04-29T09:36:34;4.80;;;2.10;;
7539;SDS011;3811;49.006;12.076;2023-04-29T09:39:02;1.93;;;1.83;;
7539;SDS011;3811;49.006;12.076;2023-04-29T09:41:31;2.27;;;2.17;;
7539;SDS011;3811;49.006;12.076;2023-04-29T09:44:02;3.37;;;2.23;;
7539;SDS011;3811;49.006;12.076;2023-04-29T09:46:30;2.40;;;2.20;;
7539;SDS011;3811;49.006;12.076;2023-04-29T09:48:58;3.97;;;2.67;;
7539;SDS011;3811;49.006;12.076;2023-04-29T09:51:25;3.03;;;2.20;;
7539;SDS011;3811;49.006;12.076;2023-04-29T09:53:53;2.77;;;2.43;;
7539;SDS011;3811;49.006;12.076;2023-04-29T09:56:21;3.33;;;2.70;;
7539;SDS011;3811;49.006;12.076;2023-04-29T09:58:50;2.93;;;2.73;;
7539;SDS011;3811;49.006;12.076;2023-04-29T10:01:17;2.40;;;2.30;;
7539;SDS011;3811;49.006;12.076;2023-04-29T10:03:45;2.43;;;2.23;;
7539;SDS011;3811;49.006;12.076;2023-04-29T10:06:15;2.70;;;2.50;;
7539;SDS011;3811;49.006;12.076;2023-04-29T10:08:43;2.50;;;2.30;;
7539;SDS011;3811;49.006;12.076;2023-04-29T10:11:13;5.97;;;2.80;;
7539;SDS011;3811;49.006;12.076;2023-04-29T10:13:41;2.97;;;2.67;;
7539;SDS011;3811;49.006;12.076;2023-04-29T10:16:14;3.27;;;2.70;;
7539;SDS011;3811;49.006;12.076;2023-04-29T10:18:54;2.80;;;2.60;;
7539;SDS011;3811;49.006;12.076;2023-04-29T10:21:25;2.37;;;2.27;;
7539;SDS011;3811;49.006;12.076;2023-04-29T10:23:55;2.10;;;2.00;;
7539;SDS011;3811;49.006;12.076;2023-04-29T10:26:24;3.17;;;2.37;;
7539;SDS011;3811;49.006;12.076;2023-04-29T10:28:54;2.37;;;2.17;;
7539;SDS011;3811;49.006;12.076;2023-04-29T10:31:22;2.60;;;2.40;;
7539;SDS011;3811;49.006;12.076;2023-04-29T10:33:53;3.00;;;2.80;;
7539;SDS011;3811;49.006;12.076;2023-04-29T10:36:22;4.03;;;2.80;;
7539;SDS011;3811;49.006;12.076;2023-04-29T10:38:50;3.30;;;3.10;;
7539;SDS011;3811;49.006;12.076;2023-04-29T10:41:21;4.03;;;3.20;;
7539;SDS011;3811;49.006;12.076;2023-04-29T10:43:50;3.23;;;3.03;;
7539;SDS011;3811;49.006;12.076;2023-04-29T10:46:21;4.17;;;3.30;;
7539;SDS011;3811;49.006;12.076;2023-04-29T10:48:55;3.73;;;3.43;;
7539;SDS011;3811;49.006;12.076;2023-04-29T10:51:27;3.23;;;2.93;;
7539;SDS011;3811;49.006;12.076;2023-04-29T10:53:57;3.50;;;3.20;;
7539;SDS011;3811;49.006;12.076;2023-04-29T10:56:34;3.87;;;3.50;;
7539;SDS011;3811;49.006;12.076;2023-04-29T10:59:08;3.60;;;3.30;;
7539;SDS011;3811;49.006;12.076;2023-04-29T11:01:44;3.37;;;3.07;;
7539;SDS011;3811;49.006;12.076;2023-04-29T11:04:13;3.60;;;3.33;;
7539;SDS011;3811;49.006;12.076;2023-04-29T11:06:43;3.20;;;2.90;;
7539;SDS011;3811;49.006;12.076;2023-04-29T11:09:12;3.80;;;3.30;;
7539;SDS011;3811;49.006;12.076;2023-04-29T11:11:47;4.23;;;3.83;;
7539;SDS011;3811;49.006;12.076;2023-04-29T11:14:30;3.70;;;3.40;;
7539;SDS011;3811;49.006;12.076;2023-04-29T11:17:01;3.93;;;3.60;;
7539;SDS011;3811;49.006;12.076;2023-04-29T11:19:31;3.63;;;3.40;;
7539;SDS011;3811;49.006;12.076;2023-04-29T11:22:03;3.37;;;3.07;;
7539;SDS011;3811;49.006;12.076;2023-04-29T11:24:35;3.20;;;3.00;;
7539;SDS011;3811;49.006;12.076;2023-04-29T11:27:03;3.47;;;3.27;;
7539;SDS011;3811;49.006;12.076;2023-04-29T11:29:31;3.23;;;2.87;;
7539;SDS011;3811;49.006;12.076;2023-04-29T11:31:59;9.00;;;3.40;;
7539;SDS011;3811;49.006;12.076;2023-04-29T11:34:26;3.37;;;3.17;;
7539;SDS011;3811;49.006;12.076;2023-04-29T11:36:55;3.57;;;3.37;;
7539;SDS011;3811;49.006;12.076;2023-04-29T11:39:22;3.63;;;3.33;;
7539;SDS011;3811;49.006;12.076;2023-04-29T11:41:50;4.20;;;3.90;;
7539;SDS011;3811;49.006;12.076;2023-04-29T11:44:20;4.13;;;3.73;;
7539;SDS011;3811;49.006;12.076;2023-04-29T11:46:47;3.50;;;3.20;;
7539;SDS011;3811;49.006;12.076;2023-04-29T11:49:15;3.60;;;3.30;;
7539;SDS011;3811;49.006;12.076;2023-04-29T11:51:42;3.53;;;3.10;;
7539;SDS011;3811;49.006;12.076;2023-04-29T11:54:11;3.40;;;3.10;;
7539;SDS011;3811;49.006;12.076;2023-04-29T11:56:50;3.40;;;2.70;;
7539;SDS011;3811;49.006;12.076;2023-04-29T11:59:19;3.30;;;3.00;;
7539;SDS011;3811;49.006;12.076;2023-04-29T12:01:46;2.80;;;2.50;;
7539;SDS011;3811;49.006;12.076;2023-04-29T12:04:13;3.10;;;2.87;;
7539;SDS011;3811;49.006;12.076;2023-04-29T12:06:41;2.80;;;2.60;;
7539;SDS011;3811;49.006;12.076;2023-04-29T12:09:08;3.43;;;2.80;;
7539;SDS011;3811;49.006;12.076;2023-04-29T12:11:37;2.50;;;2.40;;
7539;SDS011;3811;49.006;12.076;2023-04-29T12:14:05;2.53;;;2.43;;
7539;SDS011;3811;49.006;12.076;2023-04-29T12:16:32;3.00;;;2.70;;
7539;SDS011;3811;49.006;12.076;2023-04-29T12:19:00;2.40;;;2.20;;
7539;SDS011;3811;49.006;12.076;2023-04-29T12:21:27;1.90;;;1.80;;
7539;SDS011;3811;49.006;12.076;2023-04-29T12:23:57;2.30;;;2.20;;
7539;SDS011;3811;49.006;12.076;2023-04-29T12:26:26;3.30;;;2.30;;
7539;SDS011;3811;49.006;12.076;2023-04-29T12:28:56;2.53;;;2.33;;
7539;SDS011;3811;49.006;12.076;2023-04-29T12:31:29;2.13;;;2.00;;
7539;SDS011;3811;49.006;12.076;2023-04-29T12:33:57;2.50;;;2.33;;
7539;SDS011;3811;49.006;12.076;2023-04-29T12:36:24;2.77;;;2.57;;
7539;SDS011;3811;49.006;12.076;2023-04-29T12:38:52;2.57;;;2.37;;
7539;SDS011;3811;49.006;12.076;2023-04-29T12:41:34;2.80;;;2.60;;
7539;SDS011;3811;49.006;12.076;2023-04-29T12:47:19;3.37;;;2.50;;
7539;SDS011;3811;49.006;12.076;2023-04-29T12:49:47;2.53;;;2.33;;
7539;SDS011;3811;49.006;12.076;2023-04-29T12:52:14;2.20;;;2.10;;
7539;SDS011;3811;49.006;12.076;2023-04-29T12:54:41;2.60;;;2.40;;
7539;SDS011;3811;49.006;12.076;2023-04-29T12:57:08;2.70;;;2.50;;
7539;SDS011;3811;49.006;12.076;2023-04-29T12:59:36;2.87;;;2.63;;
7539;SDS011;3811;49.006;12.076;2023-04-29T13:02:04;2.63;;;2.43;;
7539;SDS011;3811;49.006;12.076;2023-04-29T13:04:33;2.37;;;2.20;;
7539;SDS011;3811;49.006;12.076;2023-04-29T13:07:00;3.17;;;2.47;;
7539;SDS011;3811;49.006;12.076;2023-04-29T13:09:28;2.37;;;2.27;;
7539;SDS011;3811;49.006;12.076;2023-04-29T13:11:56;2.60;;;2.40;;
7539;SDS011;3811;49.006;12.076;2023-04-29T13:14:23;3.30;;;2.77;;
7539;SDS011;3811;49.006;12.076;2023-04-29T13:16:50;2.90;;;2.60;;
7539;SDS011;3811;49.006;12.076;2023-04-29T13:19:18;2.70;;;2.60;;
7539;SDS011;3811;49.006;12.076;2023-04-29T13:21:47;2.93;;;2.73;;
7539;SDS011;3811;49.006;12.076;2023-04-29T13:24:15;2.67;;;2.43;;
7539;SDS011;3811;49.006;12.076;2023-04-29T13:26:44;2.27;;;2.13;;
7539;SDS011;3811;49.006;12.076;2023-04-29T13:29:12;2.43;;;2.23;;
7539;SDS011;3811;49.006;12.076;2023-04-29T13:31:39;2.27;;;2.17;;
7539;SDS011;3811;49.006;12.076;2023-04-29T13:34:08;2.10;;;2.00;;
7539;SDS011;3811;49.006;12.076;2023-04-29T13:36:35;2.10;;;2.00;;
7539;SDS011;3811;49.006;12.076;2023-04-29T13:39:04;2.20;;;1.73;;
7539;SDS011;3811;49.006;12.076;2023-04-29T13:41:31;2.37;;;2.17;;
7539;SDS011;3811;49.006;12.076;2023-04-29T13:43:59;2.40;;;2.20;;
7539;SDS011;3811;49.006;12.076;2023-04-29T13:46:26;2.10;;;2.00;;
7539;SDS011;3811;49.006;12.076;2023-04-29T13:48:53;2.27;;;2.07;;
7539;SDS011;3811;49.006;12.076;2023-04-29T13:51:21;2.70;;;2.50;;
7539;SDS011;3811;49.006;12.076;2023-04-29T13:53:48;2.33;;;2.17;;
7539;SDS011;3811;49.006;12.076;2023-04-29T13:56:17;2.33;;;2.10;;
7539;SDS011;3811;49.006;12.076;2023-04-29T13:58:43;2.40;;;2.30;;
7539;SDS011;3811;49.006;12.076;2023-04-29T14:01:11;2.50;;;2.30;;
7539;SDS011;3811;49.006;12.076;2023-04-29T14:03:38;3.40;;;3.10;;
7539;SDS011;3811;49.006;12.076;2023-04-29T14:06:06;2.60;;;2.40;;
7539;SDS011;3811;49.006;12.076;2023-04-29T14:08:33;3.03;;;2.83;;
7539;SDS011;3811;49.006;12.076;2023-04-29T14:11:01;3.10;;;2.90;;
7539;SDS011;3811;49.006;12.076;2023-04-29T14:13:29;3.13;;;2.80;;
7539;SDS011;3811;49.006;12.076;2023-04-29T14:15:56;3.58;;;3.38;;
7539;SDS011;3811;49.006;12.076;2023-04-29T14:18:23;3.20;;;3.00;;
7539;SDS011;3811;49.006;12.076;2023-04-29T14:20:51;3.40;;;3.10;;
7539;SDS011;3811;49.006;12.076;2023-04-29T14:23:19;3.47;;;3.17;;
7539;SDS011;3811;49.006;12.076;2023-04-29T14:25:46;3.17;;;2.97;;
7539;SDS011;3811;49.006;12.076;2023-04-29T14:28:14;3.77;;;3.47;;
7539;SDS011;3811;49.006;12.076;2023-04-29T14:30:42;3.00;;;2.80;;
7539;SDS011;3811;49.006;12.076;2023-04-29T14:33:10;2.67;;;2.47;;
7539;SDS011;3811;49.006;12.076;2023-04-29T14:35:37;3.00;;;2.80;;
7539;SDS011;3811;49.006;12.076;2023-04-29T14:38:05;3.23;;;2.93;;
7539;SDS011;3811;49.006;12.076;2023-04-29T14:40:32;4.20;;;2.83;;
7539;SDS011;3811;49.006;12.076;2023-04-29T14:43:00;5.63;;;4.90;;
7539;SDS011;3811;49.006;12.076;2023-04-29T14:45:28;4.33;;;3.93;;
7539;SDS011;3811;49.006;12.076;2023-04-29T14:47:57;6.27;;;5.60;;
7539;SDS011;3811;49.006;12.076;2023-04-29T14:50:25;2.73;;;2.53;;
7539;SDS011;3811;49.006;12.076;2023-04-29T14:52:52;6.10;;;4.33;;
7539;SDS011;3811;49.006;12.076;2023-04-29T14:55:19;4.83;;;4.37;;
7539;SDS011;3811;49.006;12.076;2023-04-29T14:57:46;4.93;;;4.43;;
7539;SDS011;3811;49.006;12.076;2023-04-29T15:00:14;2.20;;;2.00;;
7539;SDS011;3811;49.006;12.076;2023-04-29T15:02:41;2.47;;;2.37;;
7539;SDS011;3811;49.006;12.076;2023-04-29T15:05:10;2.80;;;2.53;;
7539;SDS011;3811;49.006;12.076;2023-04-29T15:07:37;3.70;;;3.40;;
7539;SDS011;3811;49.006;12.076;2023-04-29T15:10:04;3.37;;;3.17;;
7539;SDS011;3811;49.006;12.076;2023-04-29T15:12:33;2.40;;;2.20;;
7539;SDS011;3811;49.006;12.076;2023-04-29T15:15:00;2.30;;;2.10;;
7539;SDS011;3811;49.006;12.076;2023-04-29T15:17:28;2.60;;;2.40;;
7539;SDS011;3811;49.006;12.076;2023-04-29T15:19:55;2.97;;;2.87;;